createdAt,value
2023-03-03T00:01:36.147Z,75.52
2023-03-03T00:04:02.839Z,74.58
2023-03-03T00:06:30.601Z,78.06
2023-03-03T00:08:58.079Z,78.22
2023-03-03T00:11:24.518Z,77.28
2023-03-03T00:13:54.809Z,77.07
2023-03-03T00:16:37.356Z,76.08
2023-03-03T00:19:12.967Z,74.13
2023-03-03T00:21:46.619Z,76.90
2023-03-03T00:24:24.795Z,77.18
2023-03-03T00:26:55.706Z,75.89
2023-03-03T00:29:30.903Z,73.48
2023-03-03T00:32:23.184Z,75.84
2023-03-03T00:34:54.388Z,76.05
2023-03-03T00:37:24.005Z,74.36
2023-03-03T00:39:50.468Z,73.72
2023-03-03T00:42:18.509Z,72.71
2023-03-03T00:44:56.203Z,73.08
2023-03-03T00:47:38.303Z,73.90
2023-03-03T00:50:07.764Z,75.54
2023-03-03T00:52:41.136Z,74.60
2023-03-03T00:55:08.701Z,74.21
2023-03-03T00:57:35.349Z,72.95
2023-03-03T01:00:01.920Z,72.19
2023-03-03T01:02:28.420Z,73.22
2023-03-03T01:04:57.654Z,73.90
2023-03-03T01:07:24.446Z,74.69
2023-03-03T01:09:51.063Z,74.97
2023-03-03T01:12:18.101Z,76.52
2023-03-03T01:14:46.092Z,76.98
2023-03-03T01:17:12.865Z,77.54
2023-03-03T01:19:39.330Z,77.00
2023-03-03T01:22:05.824Z,75.68
2023-03-03T01:24:32.239Z,75.74
2023-03-03T01:26:58.711Z,77.30
2023-03-03T01:29:25.235Z,77.14
2023-03-03T01:31:51.757Z,75.77
2023-03-03T01:34:18.198Z,75.04
2023-03-03T01:36:44.936Z,74.96
2023-03-03T01:39:12.310Z,75.39
2023-03-03T01:41:39.819Z,74.52
2023-03-03T01:44:06.437Z,73.92
2023-03-03T01:46:42.361Z,74.30
2023-03-03T01:49:17.673Z,74.12
2023-03-03T01:52:12.997Z,77.52
2023-03-03T01:54:50.547Z,79.17
2023-03-03T01:57:25.321Z,81.08
2023-03-03T01:59:55.336Z,82.63
2023-03-03T02:02:22.526Z,81.92
2023-03-03T02:04:50.319Z,81.62
2023-03-03T02:07:18.900Z,79.50
2023-03-03T02:10:05.406Z,78.83
2023-03-03T02:12:39.285Z,79.40
2023-03-03T02:15:33.330Z,76.89
2023-03-03T02:18:04.264Z,77.55
2023-03-03T02:20:30.644Z,77.79
2023-03-03T02:23:06.285Z,78.32
2023-03-03T02:26:02.812Z,77.86
2023-03-03T02:28:32.648Z,78.60
2023-03-03T02:31:01.110Z,78.86
2023-03-03T02:33:32.206Z,79.14
2023-03-03T02:35:58.677Z,78.39
2023-03-03T02:38:32.393Z,79.01
2023-03-03T02:40:58.990Z,78.33
2023-03-03T02:44:05.896Z,79.88
2023-03-03T02:46:43.806Z,79.82
2023-03-03T02:49:13.146Z,80.84
2023-03-03T02:51:40.437Z,80.99
2023-03-03T02:54:08.579Z,81.59
2023-03-03T02:56:35.567Z,83.96
2023-03-03T02:59:02.329Z,84.02
2023-03-03T03:01:31.768Z,84.83
2023-03-03T03:03:58.985Z,84.33
2023-03-03T03:06:25.647Z,86.20
2023-03-03T03:08:55.486Z,84.92
2023-03-03T03:11:21.953Z,85.18
2023-03-03T03:13:48.397Z,85.18
2023-03-03T03:16:14.835Z,84.58
2023-03-03T03:18:41.394Z,85.12
2023-03-03T03:21:14.034Z,85.43
2023-03-03T03:23:41.069Z,84.66
2023-03-03T03:26:08.341Z,83.94
2023-03-03T03:28:35.611Z,82.76
2023-03-03T03:31:02.663Z,82.43
2023-03-03T03:33:29.329Z,82.37
2023-03-03T03:35:57.219Z,81.39
2023-03-03T03:38:25.818Z,81.86
2023-03-03T03:40:54.721Z,80.84
2023-03-03T03:43:22.925Z,80.96
2023-03-03T03:45:49.565Z,81.01
2023-03-03T03:48:17.624Z,80.92
2023-03-03T03:50:44.139Z,81.51
2023-03-03T03:53:10.685Z,81.71
2023-03-03T03:55:37.224Z,81.21
2023-03-03T03:58:03.751Z,80.93
2023-03-03T04:00:30.435Z,80.50
2023-03-03T04:02:57.050Z,80.99
2023-03-03T04:05:23.662Z,81.52
2023-03-03T04:07:50.536Z,81.52
2023-03-03T04:10:18.217Z,81.85
2023-03-03T04:12:44.743Z,81.64
2023-03-03T04:15:13.117Z,82.51
2023-03-03T04:17:40.122Z,83.21
2023-03-03T04:20:07.597Z,83.18
2023-03-03T04:22:35.989Z,83.61
2023-03-03T04:25:05.380Z,84.78
2023-03-03T04:27:33.530Z,86.83
2023-03-03T04:30:01.483Z,86.17
2023-03-03T04:32:28.108Z,85.64
2023-03-03T04:35:05.785Z,84.71
2023-03-03T04:37:34.174Z,84.43
2023-03-03T04:40:00.706Z,84.49
2023-03-03T04:42:29.247Z,84.95
2023-03-03T04:44:55.782Z,84.51
2023-03-03T04:47:22.411Z,86.74
2023-03-03T04:49:48.892Z,87.79
2023-03-03T04:52:15.405Z,89.09
2023-03-03T04:54:42.346Z,88.75
2023-03-03T04:57:09.820Z,86.90
2023-03-03T04:59:36.928Z,86.41
2023-03-03T05:02:05.347Z,86.39
2023-03-03T05:04:32.349Z,85.93
2023-03-03T05:06:58.960Z,86.02
2023-03-03T05:09:25.460Z,87.94
2023-03-03T05:11:52.189Z,86.40
2023-03-03T05:14:18.641Z,85.77
2023-03-03T05:16:45.161Z,86.11
2023-03-03T05:19:11.742Z,86.74
2023-03-03T05:21:42.400Z,85.90
2023-03-03T05:24:09.890Z,86.95
2023-03-03T05:26:36.448Z,87.73
2023-03-03T05:29:04.466Z,88.04
2023-03-03T05:31:31.089Z,88.81
2023-03-03T05:33:57.686Z,89.83
2023-03-03T05:36:24.879Z,89.70
2023-03-03T05:38:53.661Z,90.28
2023-03-03T05:41:20.665Z,91.33
2023-03-03T05:43:53.250Z,91.42
2023-03-03T05:46:19.832Z,91.03
2023-03-03T05:48:47.301Z,89.70
2023-03-03T05:51:14.060Z,91.11
2023-03-03T05:53:40.860Z,89.78
2023-03-03T05:56:07.443Z,90.26
2023-03-03T05:58:34.936Z,90.82
2023-03-03T06:01:01.454Z,91.96
2023-03-03T06:03:28.001Z,92.20
2023-03-03T06:05:54.677Z,91.92
2023-03-03T06:08:22.161Z,92.10
2023-03-03T06:10:48.612Z,91.54
2023-03-03T06:13:15.224Z,91.61
2023-03-03T06:15:41.702Z,91.71
2023-03-03T06:18:09.054Z,91.56
2023-03-03T06:20:45.832Z,91.87
2023-03-03T06:23:12.235Z,91.97
2023-03-03T06:25:39.612Z,93.41
2023-03-03T06:28:06.054Z,92.23
2023-03-03T06:30:32.580Z,91.11
2023-03-03T06:32:59.102Z,89.21
2023-03-03T06:35:25.711Z,90.03
2023-03-03T06:37:52.275Z,90.16
2023-03-03T06:40:18.905Z,86.41
2023-03-03T06:42:45.668Z,83.62
2023-03-03T06:45:12.612Z,83.98
2023-03-03T06:47:39.072Z,85.92
2023-03-03T06:50:06.367Z,84.78
2023-03-03T06:52:32.814Z,82.94
2023-03-03T06:55:02.112Z,80.70
2023-03-03T06:57:31.174Z,79.18
2023-03-03T07:00:16.504Z,76.58
2023-03-03T07:02:43.261Z,72.81
2023-03-03T07:05:15.479Z,69.73
2023-03-03T07:07:43.607Z,68.90
2023-03-03T07:10:29.210Z,65.56
2023-03-03T07:13:06.928Z,63.93
2023-03-03T07:15:35.442Z,63.28
2023-03-03T07:18:03.292Z,62.21
2023-03-03T07:20:38.330Z,60.51
2023-03-03T07:23:23.258Z,59.88
2023-03-03T07:25:51.001Z,59.94
2023-03-03T07:28:24.581Z,58.77
2023-03-03T07:30:53.248Z,58.92
2023-03-03T07:33:45.321Z,58.30
2023-03-03T07:36:37.746Z,57.58
2023-03-03T07:39:42.086Z,56.77
2023-03-03T07:42:34.789Z,56.31
2023-03-03T07:45:02.399Z,55.85
2023-03-03T07:47:35.407Z,55.50
2023-03-03T07:50:16.536Z,53.85
2023-03-03T07:53:00.703Z,55.25
2023-03-03T07:55:31.533Z,54.98
2023-03-03T07:58:16.550Z,55.78
2023-03-03T08:00:42.983Z,54.24
2023-03-03T08:03:20.902Z,55.48
2023-03-03T08:05:49.278Z,55.54
2023-03-03T08:08:36.848Z,54.45
2023-03-03T08:11:05.472Z,53.90
2023-03-03T08:13:34.941Z,53.85
2023-03-03T08:16:04.793Z,51.71
2023-03-03T08:18:48.481Z,53.89
2023-03-03T08:21:18.034Z,51.85
2023-03-03T08:23:45.905Z,51.85
2023-03-03T08:26:17.030Z,51.63
2023-03-03T08:28:45.374Z,50.73
2023-03-03T08:31:22.360Z,52.20
2023-03-03T08:33:54.345Z,50.82
2023-03-03T08:36:21.440Z,50.29
2023-03-03T08:38:48.039Z,49.23
2023-03-03T08:41:15.705Z,50.15
2023-03-03T08:43:48.329Z,49.96
2023-03-03T08:46:14.897Z,50.13
2023-03-03T08:48:47.670Z,48.65
2023-03-03T08:51:14.745Z,49.14
2023-03-03T08:53:48.714Z,48.48
2023-03-03T08:56:15.191Z,48.21
2023-03-03T08:59:01.342Z,49.52
2023-03-03T09:01:28.602Z,47.36
2023-03-03T09:03:55.243Z,48.19
2023-03-03T09:06:21.766Z,46.27
2023-03-03T09:08:48.643Z,46.95
2023-03-03T09:11:24.774Z,46.05
2023-03-03T09:14:06.334Z,47.13
2023-03-03T09:16:37.986Z,45.35
2023-03-03T09:19:43.640Z,44.41
2023-03-03T09:22:23.023Z,43.78
2023-03-03T09:24:53.878Z,45.26
2023-03-03T09:27:34.304Z,43.42
2023-03-03T09:30:26.949Z,44.67
2023-03-03T09:32:56.218Z,45.79
2023-03-03T09:35:41.215Z,43.57
2023-03-03T09:38:28.172Z,43.02
2023-03-03T09:41:09.731Z,43.41
2023-03-03T09:43:59.740Z,44.16
2023-03-03T09:46:36.670Z,43.42
2023-03-03T09:49:09.096Z,44.18
2023-03-03T09:51:50.165Z,44.14
2023-03-03T09:54:31.065Z,42.42
2023-03-03T09:57:12.098Z,43.64
2023-03-03T09:59:55.073Z,42.04
2023-03-03T10:02:33.521Z,42.51
2023-03-03T10:05:14.429Z,40.49
2023-03-03T10:08:31.224Z,41.60
2023-03-03T10:11:13.297Z,40.20
2023-03-03T10:13:53.963Z,40.38
2023-03-03T10:16:29.440Z,41.40
2023-03-03T10:19:11.681Z,41.33
2023-03-03T10:22:17.450Z,41.08
2023-03-03T10:25:05.146Z,41.92
2023-03-03T10:27:50.048Z,42.35
2023-03-03T10:30:46.211Z,42.40
2023-03-03T10:33:32.820Z,42.55
2023-03-03T10:36:25.407Z,41.86
2023-03-03T10:39:16.260Z,43.51
2023-03-03T10:41:47.002Z,43.06
2023-03-03T10:44:41.087Z,42.51
2023-03-03T10:47:26.660Z,42.72
2023-03-03T10:50:22.835Z,42.39
2023-03-03T10:52:54.296Z,42.42
2023-03-03T10:55:38.320Z,42.77
2023-03-03T10:58:28.824Z,43.55
2023-03-03T11:01:22.335Z,43.16
2023-03-03T11:04:13.217Z,42.78
2023-03-03T11:06:50.896Z,43.69
2023-03-03T11:09:42.730Z,42.78
2023-03-03T11:12:29.499Z,42.40
2023-03-03T11:15:22.343Z,42.55
2023-03-03T11:18:10.241Z,42.77
2023-03-03T11:20:41.634Z,42.90
2023-03-03T11:23:38.004Z,42.91
2023-03-03T11:26:46.067Z,42.75
2023-03-03T11:29:26.314Z,43.41
2023-03-03T11:31:56.982Z,44.83
2023-03-03T11:35:19.130Z,42.88
2023-03-03T11:37:57.681Z,45.92
2023-03-03T11:40:48.858Z,43.82
2023-03-03T11:43:46.040Z,42.70
2023-03-03T11:46:22.513Z,43.82
2023-03-03T11:49:17.281Z,42.39
2023-03-03T11:51:43.774Z,42.17
2023-03-03T11:54:22.748Z,42.95
2023-03-03T11:56:50.211Z,42.82
2023-03-03T11:59:44.336Z,42.36
2023-03-03T12:02:29.297Z,43.80
2023-03-03T12:05:11.713Z,42.40
2023-03-03T12:07:57.807Z,42.31
2023-03-03T12:10:50.923Z,44.19
2023-03-03T12:13:45.295Z,42.95
2023-03-03T12:16:49.197Z,43.96
2023-03-03T12:19:41.033Z,43.56
2023-03-03T12:22:21.703Z,43.73
2023-03-03T12:25:25.935Z,44.53
2023-03-03T12:27:55.647Z,44.01
2023-03-03T12:30:41.128Z,43.98
2023-03-03T12:33:29.733Z,45.36
2023-03-03T12:36:33.520Z,43.76
2023-03-03T12:39:34.732Z,43.44
2023-03-03T12:42:17.261Z,43.32
2023-03-03T12:45:18.845Z,45.62
2023-03-03T12:47:51.731Z,43.56
2023-03-03T12:50:41.548Z,43.44
2023-03-03T12:53:27.604Z,42.33
2023-03-03T12:56:01.484Z,41.78
2023-03-03T12:58:33.982Z,43.98
2023-03-03T13:01:09.554Z,43.36
2023-03-03T13:03:56.204Z,41.82
2023-03-03T13:06:32.973Z,40.70
2023-03-03T13:09:18.311Z,40.95
2023-03-03T13:12:03.450Z,40.60
2023-03-03T13:14:41.684Z,40.64
2023-03-03T13:17:37.074Z,42.44
2023-03-03T13:20:16.510Z,42.07
2023-03-03T13:23:17.715Z,40.94
2023-03-03T13:26:04.994Z,41.55
2023-03-03T13:28:36.971Z,40.48
2023-03-03T13:31:12.584Z,40.19
2023-03-03T13:33:50.108Z,39.97
2023-03-03T13:36:17.589Z,42.13
2023-03-03T13:38:57.667Z,42.57
2023-03-03T13:41:34.914Z,41.46
2023-03-03T13:44:11.870Z,42.71
2023-03-03T13:46:45.476Z,39.99
2023-03-03T13:49:26.414Z,40.40
2023-03-03T13:52:03.360Z,41.61
2023-03-03T13:54:39.786Z,39.43
2023-03-03T13:57:27.604Z,39.45
2023-03-03T14:00:30.904Z,40.34
2023-03-03T14:03:18.235Z,39.16
2023-03-03T14:05:48.583Z,39.62
2023-03-03T14:08:39.755Z,37.47
2023-03-03T14:11:23.900Z,38.12
2023-03-03T14:14:20.759Z,38.57
2023-03-03T14:17:21.842Z,39.09
2023-03-03T14:20:13.296Z,37.44
2023-03-03T14:22:59.332Z,38.16
2023-03-03T14:25:27.162Z,38.75
2023-03-03T14:28:09.730Z,38.75
2023-03-03T14:30:42.396Z,36.70
2023-03-03T14:33:09.410Z,37.30
2023-03-03T14:35:50.386Z,38.00
2023-03-03T14:38:21.983Z,39.37
2023-03-03T14:41:23.106Z,39.06
2023-03-03T14:43:58.793Z,38.80
2023-03-03T14:46:33.645Z,39.88
2023-03-03T14:49:04.325Z,40.47
2023-03-03T14:51:48.796Z,40.69
2023-03-03T14:54:26.857Z,40.07
2023-03-03T14:57:16.562Z,40.00
2023-03-03T15:00:10.718Z,41.21
2023-03-03T15:02:52.593Z,41.31
2023-03-03T15:05:19.140Z,41.00
2023-03-03T15:07:50.152Z,42.02
2023-03-03T15:10:27.949Z,42.50
2023-03-03T15:12:54.752Z,41.60
2023-03-03T15:15:24.761Z,41.99
2023-03-03T15:18:07.257Z,42.61
2023-03-03T15:20:48.292Z,43.60
2023-03-03T15:23:29.712Z,44.47
2023-03-03T15:26:41.460Z,45.20
2023-03-03T15:29:23.212Z,43.79
2023-03-03T15:32:18.970Z,44.89
2023-03-03T15:35:21.802Z,44.98
2023-03-03T15:38:07.411Z,45.50
2023-03-03T15:40:46.011Z,45.34
2023-03-03T15:43:45.200Z,45.28
2023-03-03T15:46:52.412Z,45.62
2023-03-03T15:49:52.953Z,45.65
2023-03-03T15:52:23.576Z,46.15
2023-03-03T15:55:06.882Z,46.91
2023-03-03T15:57:42.455Z,47.60
2023-03-03T16:00:32.785Z,47.65
2023-03-03T16:03:06.499Z,47.65
2023-03-03T16:05:46.627Z,48.38
2023-03-03T16:08:26.000Z,48.53
2023-03-03T16:11:04.530Z,48.91
2023-03-03T16:13:41.451Z,49.14
2023-03-03T16:16:31.096Z,49.33
2023-03-03T16:19:04.061Z,50.05
2023-03-03T16:21:42.717Z,50.09
2023-03-03T16:24:24.243Z,50.78
2023-03-03T16:27:09.353Z,51.89
2023-03-03T16:29:42.555Z,51.29
2023-03-03T16:32:26.397Z,51.34
2023-03-03T16:35:15.904Z,51.62
2023-03-03T16:38:03.594Z,51.65
2023-03-03T16:40:40.090Z,52.31
2023-03-03T16:43:16.769Z,52.27
2023-03-03T16:45:43.408Z,52.72
2023-03-03T16:48:47.569Z,52.72
2023-03-03T16:51:56.228Z,53.74
2023-03-03T16:54:44.261Z,53.53
2023-03-03T16:57:20.910Z,53.71
2023-03-03T17:00:11.062Z,53.57
2023-03-03T17:02:59.902Z,53.71
2023-03-03T17:05:42.449Z,53.65
2023-03-03T17:08:37.893Z,52.83
2023-03-03T17:11:23.363Z,52.89
2023-03-03T17:14:10.951Z,53.11
2023-03-03T17:16:56.657Z,53.31
2023-03-03T17:20:02.732Z,52.52
2023-03-03T17:22:47.843Z,52.53
2023-03-03T17:25:48.219Z,52.44
2023-03-03T17:28:31.736Z,52.53
2023-03-03T17:31:24.224Z,52.78
2023-03-03T17:34:09.640Z,53.98
2023-03-03T17:36:49.774Z,53.34
2023-03-03T17:39:30.727Z,53.65
2023-03-03T17:42:19.172Z,54.04
2023-03-03T17:45:00.697Z,53.38
2023-03-03T17:47:50.181Z,54.63
2023-03-03T17:50:31.875Z,54.94
2023-03-03T17:53:17.605Z,54.75
2023-03-03T17:56:12.053Z,55.14
2023-03-03T17:58:53.575Z,54.52
2023-03-03T18:01:25.983Z,55.23
2023-03-03T18:04:27.712Z,55.03
2023-03-03T18:07:22.070Z,56.02
2023-03-03T18:10:24.504Z,56.34
2023-03-03T18:13:30.752Z,56.24
2023-03-03T18:16:11.679Z,57.78
2023-03-03T18:19:02.766Z,57.08
2023-03-03T18:21:35.374Z,57.23
2023-03-03T18:24:29.053Z,57.21
2023-03-03T18:26:56.636Z,57.40
2023-03-03T18:29:30.578Z,57.63
2023-03-03T18:32:04.285Z,57.33
2023-03-03T18:34:36.306Z,57.59
2023-03-03T18:37:09.528Z,57.73
2023-03-03T18:39:41.153Z,58.71
2023-03-03T18:42:35.169Z,57.85
2023-03-03T18:45:27.163Z,58.50
2023-03-03T18:48:05.401Z,58.18
2023-03-03T18:50:47.148Z,58.32
2023-03-03T18:53:18.095Z,58.42
2023-03-03T18:55:45.978Z,59.00
2023-03-03T18:58:15.483Z,59.04
2023-03-03T19:00:44.544Z,58.95
2023-03-03T19:03:50.742Z,59.85
2023-03-03T19:06:52.405Z,60.80
2023-03-03T19:09:39.832Z,62.03
2023-03-03T19:12:11.096Z,62.69
2023-03-03T19:14:40.725Z,62.47
2023-03-03T19:17:16.378Z,62.52
2023-03-03T19:20:08.863Z,62.09
2023-03-03T19:23:03.080Z,63.03
2023-03-03T19:25:33.996Z,63.89
2023-03-03T19:28:30.432Z,63.89
2023-03-03T19:31:06.261Z,63.61
2023-03-03T19:34:00.701Z,64.56
2023-03-03T19:36:30.258Z,63.99
2023-03-03T19:39:13.288Z,63.54
2023-03-03T19:41:52.664Z,63.67
2023-03-03T19:44:51.304Z,65.21
2023-03-03T19:47:29.255Z,64.99
2023-03-03T19:50:07.004Z,64.73
2023-03-03T19:53:07.493Z,67.37
2023-03-03T19:56:11.472Z,66.40
2023-03-03T19:59:03.035Z,65.73
2023-03-03T20:01:45.581Z,66.59
2023-03-03T20:04:29.124Z,65.38
2023-03-03T20:07:18.526Z,67.39
2023-03-03T20:10:16.113Z,67.93
2023-03-03T20:13:00.085Z,66.87
2023-03-03T20:15:40.445Z,67.15
2023-03-03T20:18:26.414Z,68.31
2023-03-03T20:21:00.837Z,67.65
2023-03-03T20:23:46.924Z,69.36
2023-03-03T20:26:28.803Z,70.40
2023-03-03T20:29:35.322Z,70.01
2023-03-03T20:32:28.102Z,69.75
2023-03-03T20:35:00.631Z,69.29
2023-03-03T20:38:05.750Z,73.11
2023-03-03T20:40:50.856Z,72.69
2023-03-03T20:43:39.574Z,73.53
2023-03-03T20:46:36.157Z,74.56
2023-03-03T20:49:38.179Z,75.34
2023-03-03T20:52:31.597Z,76.34
2023-03-03T20:55:18.320Z,76.35
2023-03-03T20:58:05.272Z,74.81
2023-03-03T21:00:35.662Z,76.02
2023-03-03T21:03:30.167Z,76.77
2023-03-03T21:06:15.440Z,76.47
2023-03-03T21:08:46.846Z,78.96
2023-03-03T21:11:18.623Z,79.01
2023-03-03T21:13:54.373Z,81.81
2023-03-03T21:16:20.978Z,80.24
2023-03-03T21:18:57.495Z,81.35
2023-03-03T21:21:30.145Z,79.90
2023-03-03T21:23:57.175Z,78.77
2023-03-03T21:26:59.016Z,80.78
2023-03-03T21:29:35.941Z,79.92
2023-03-03T21:32:05.386Z,79.95
2023-03-03T21:34:33.852Z,80.49
2023-03-03T21:37:02.187Z,81.47
2023-03-03T21:39:46.845Z,82.95
2023-03-03T21:42:19.545Z,83.57
2023-03-03T21:44:52.453Z,84.67
2023-03-03T21:47:21.547Z,85.90
2023-03-03T21:49:50.708Z,87.30
2023-03-03T21:52:32.844Z,87.72
2023-03-03T21:54:59.172Z,89.79
2023-03-03T21:57:25.897Z,91.24
2023-03-03T21:59:54.372Z,92.24
2023-03-03T22:02:20.871Z,93.63
2023-03-03T22:04:47.472Z,94.28
2023-03-03T22:07:14.064Z,92.85
2023-03-03T22:09:40.612Z,92.08
2023-03-03T22:12:07.462Z,92.01
2023-03-03T22:14:34.382Z,90.57
2023-03-03T22:17:06.696Z,91.52
2023-03-03T22:19:34.248Z,91.73
2023-03-03T22:22:00.844Z,93.11
2023-03-03T22:24:29.527Z,95.46
2023-03-03T22:26:56.282Z,94.02
2023-03-03T22:29:23.258Z,94.93
2023-03-03T22:31:51.237Z,94.64
2023-03-03T22:34:17.982Z,95.23
2023-03-03T22:36:44.501Z,94.82
2023-03-03T22:39:11.033Z,94.63
2023-03-03T22:41:38.331Z,95.58
2023-03-03T22:44:05.030Z,94.08
2023-03-03T22:46:33.609Z,93.65
2023-03-03T22:49:00.106Z,95.68
2023-03-03T22:51:26.556Z,91.79
2023-03-03T22:53:53.100Z,93.22
2023-03-03T22:56:19.653Z,95.74
2023-03-03T22:58:46.249Z,94.84
2023-03-03T23:01:12.810Z,93.82
2023-03-03T23:03:39.455Z,92.76
2023-03-03T23:06:06.399Z,94.58
2023-03-03T23:08:33.026Z,94.48
2023-03-03T23:10:59.638Z,94.54
2023-03-03T23:13:27.371Z,95.34
2023-03-03T23:15:53.954Z,98.85
2023-03-03T23:18:20.509Z,97.56
2023-03-03T23:20:46.984Z,96.30
2023-03-03T23:23:13.477Z,97.25
2023-03-03T23:25:39.966Z,97.93
2023-03-03T23:28:06.878Z,97.08
2023-03-03T23:30:34.793Z,97.29
2023-03-03T23:33:01.487Z,97.25
2023-03-03T23:35:28.084Z,95.44
2023-03-03T23:37:54.547Z,92.41
2023-03-03T23:40:21.207Z,97.46
2023-03-03T23:42:47.875Z,94.98
2023-03-03T23:45:14.760Z,95.85
2023-03-03T23:47:41.618Z,96.71
2023-03-03T23:50:10.089Z,93.69
2023-03-03T23:52:37.942Z,95.86
2023-03-03T23:55:05.201Z,96.55
2023-03-03T23:57:31.956Z,96.93
2023-03-03T23:59:58.982Z,98.33
